Terminal Aerodrome Forecast
Issued by NWS

Home | Current Version | Previous Version | Text Only | Print | Product List | Glossary On
Versions: 1 2 3 4 5 6 7 8 9 10 11 12 13 14 15
000
FTUS46 KPDT 242323
TAFDLS
TAF
KDLS 242323Z 2500/2524 34012G22KT P6SM SCT090 BKN200
     FM250200 31009KT P6SM VCSH SCT050 BKN100 OVC250
     FM250400 30006KT P6SM VCSH BKN050
     FM251200 28005KT P6SM BKN050
     FM251900 31015G25KT P6SM VCSH SCT050 BKN080 OVC120=

USA.gov is the U.S. government's official web portal to all federal, state and local government web resources and services.